createdAt,value
2022-10-06T00:02:12.258Z,4.50
2022-10-06T00:04:38.674Z,4.47
2022-10-06T00:07:04.990Z,4.40
2022-10-06T00:09:31.402Z,4.45
2022-10-06T00:11:57.779Z,4.75
2022-10-06T00:14:24.456Z,4.72
2022-10-06T00:16:50.778Z,4.57
2022-10-06T00:19:17.098Z,4.72
2022-10-06T00:21:43.485Z,4.30
2022-10-06T00:24:09.848Z,4.47
2022-10-06T00:26:36.321Z,4.80
2022-10-06T00:29:02.724Z,4.68
2022-10-06T00:31:29.525Z,5.45
2022-10-06T00:33:55.937Z,4.13
2022-10-06T00:36:22.257Z,4.65
2022-10-06T00:38:48.607Z,5.30
2022-10-06T00:41:17.194Z,5.20
2022-10-06T00:43:45.130Z,5.60
2022-10-06T00:46:19.799Z,4.63
2022-10-06T00:48:48.481Z,4.93
2022-10-06T00:51:14.883Z,4.68
2022-10-06T00:53:41.684Z,4.78
2022-10-06T00:56:08.039Z,5.45
2022-10-06T00:58:34.542Z,4.97
2022-10-06T01:01:01.715Z,5.05
2022-10-06T01:03:31.198Z,4.88
2022-10-06T01:05:58.086Z,4.47
2022-10-06T01:08:24.680Z,5.10
2022-10-06T01:10:51.068Z,4.65
2022-10-06T01:13:17.968Z,4.32
2022-10-06T01:15:53.679Z,5.18
2022-10-06T01:18:22.330Z,5.00
2022-10-06T01:20:53.398Z,4.90
2022-10-06T01:23:20.313Z,4.72
2022-10-06T01:25:46.792Z,4.80
2022-10-06T01:28:13.703Z,5.68
2022-10-06T01:30:46.199Z,5.10
2022-10-06T01:33:12.710Z,5.15
2022-10-06T01:35:39.012Z,4.60
2022-10-06T01:38:05.330Z,5.00
2022-10-06T01:40:31.685Z,4.57
2022-10-06T01:42:58.022Z,4.57
2022-10-06T01:45:24.331Z,4.78
2022-10-06T01:47:50.742Z,4.80
2022-10-06T01:50:17.146Z,4.72
2022-10-06T01:52:43.504Z,4.68
2022-10-06T01:55:09.804Z,4.60
2022-10-06T01:57:40.100Z,4.35
2022-10-06T02:00:07.452Z,4.50
2022-10-06T02:02:33.791Z,4.35
2022-10-06T02:05:00.118Z,4.88
2022-10-06T02:07:26.510Z,3.85
2022-10-06T02:09:52.874Z,3.03
2022-10-06T02:12:19.180Z,1.92
2022-10-06T02:14:45.507Z,1.90
2022-10-06T02:17:12.619Z,2.25
2022-10-06T02:19:38.944Z,1.88
2022-10-06T02:22:05.301Z,1.63
2022-10-06T02:24:31.618Z,1.15
2022-10-06T02:26:57.936Z,1.40
2022-10-06T02:29:24.254Z,1.42
2022-10-06T02:31:50.601Z,1.27
2022-10-06T02:34:16.918Z,1.75
2022-10-06T02:36:43.258Z,1.42
2022-10-06T02:39:09.598Z,0.90
2022-10-06T02:41:35.919Z,1.08
2022-10-06T02:44:02.274Z,0.80
2022-10-06T02:46:28.692Z,0.80
2022-10-06T02:48:55.078Z,0.68
2022-10-06T02:51:21.911Z,0.82
2022-10-06T02:53:49.123Z,0.70
2022-10-06T02:56:20.487Z,0.90
2022-10-06T02:58:47.979Z,0.70
2022-10-06T03:01:22.311Z,0.90
2022-10-06T03:03:48.763Z,0.73
2022-10-06T03:06:26.339Z,0.70
2022-10-06T03:08:57.015Z,0.95
2022-10-06T03:11:25.395Z,0.82
2022-10-06T03:13:52.022Z,1.02
2022-10-06T03:16:22.167Z,0.80
2022-10-06T03:18:49.982Z,1.20
2022-10-06T03:21:27.501Z,0.80
2022-10-06T03:23:54.883Z,0.68
2022-10-06T03:26:22.682Z,0.95
2022-10-06T03:28:49.056Z,0.88
2022-10-06T03:31:16.136Z,1.00
2022-10-06T03:33:42.494Z,0.90
2022-10-06T03:36:13.989Z,1.15
2022-10-06T03:38:40.599Z,0.52
2022-10-06T03:41:11.111Z,0.70
2022-10-06T03:43:38.208Z,0.77
2022-10-06T03:46:05.611Z,0.75
2022-10-06T03:48:34.155Z,0.73
2022-10-06T03:51:05.800Z,1.10
2022-10-06T03:53:33.651Z,1.10
2022-10-06T03:56:13.762Z,1.23
2022-10-06T03:58:42.515Z,1.15
2022-10-06T04:01:15.532Z,0.95
2022-10-06T04:03:41.963Z,0.50
2022-10-06T04:06:13.226Z,0.98
2022-10-06T04:08:40.689Z,0.98
2022-10-06T04:11:08.698Z,0.77
2022-10-06T04:13:35.644Z,0.80
2022-10-06T04:16:16.040Z,0.90
2022-10-06T04:18:43.211Z,0.63
2022-10-06T04:21:10.170Z,0.95
2022-10-06T04:23:36.726Z,0.77
2022-10-06T04:26:09.241Z,0.70
2022-10-06T04:28:37.857Z,1.15
2022-10-06T04:31:06.402Z,0.80
2022-10-06T04:33:34.277Z,0.90
2022-10-06T04:36:02.334Z,0.75
2022-10-06T04:38:29.953Z,0.80
2022-10-06T04:40:57.351Z,0.85
2022-10-06T04:43:24.712Z,0.90
2022-10-06T04:46:09.403Z,1.00
2022-10-06T04:48:44.696Z,0.85
2022-10-06T04:51:13.021Z,0.98
2022-10-06T04:53:39.495Z,1.25
2022-10-06T04:56:11.723Z,0.98
2022-10-06T04:58:40.141Z,0.90
2022-10-06T05:01:17.195Z,0.90
2022-10-06T05:03:44.621Z,1.25
2022-10-06T05:06:16.780Z,1.35
2022-10-06T05:08:44.218Z,0.80
2022-10-06T05:11:15.220Z,1.35
2022-10-06T05:13:44.683Z,1.60
2022-10-06T05:16:13.181Z,1.27
2022-10-06T05:18:39.751Z,1.38
2022-10-06T05:21:08.322Z,1.15
2022-10-06T05:23:37.026Z,1.33
2022-10-06T05:26:04.643Z,1.30
2022-10-06T05:28:32.183Z,1.55
2022-10-06T05:31:00.023Z,1.40
2022-10-06T05:33:28.437Z,1.35
2022-10-06T05:35:59.427Z,1.77
2022-10-06T05:38:27.734Z,1.55
2022-10-06T05:41:08.603Z,1.63
2022-10-06T05:43:35.477Z,2.00
2022-10-06T05:46:03.814Z,1.67
2022-10-06T05:48:31.115Z,1.50
2022-10-06T05:51:02.698Z,1.10
2022-10-06T05:53:30.395Z,1.15
2022-10-06T05:56:23.543Z,1.30
2022-10-06T05:58:52.199Z,1.15
2022-10-06T06:01:24.586Z,1.30
2022-10-06T06:04:02.550Z,1.50
2022-10-06T06:06:31.259Z,1.42
2022-10-06T06:09:00.590Z,1.55
2022-10-06T06:11:28.186Z,1.10
2022-10-06T06:13:59.170Z,1.35
2022-10-06T06:16:26.043Z,1.77
2022-10-06T06:18:52.440Z,1.63
2022-10-06T06:21:18.922Z,1.30
2022-10-06T06:23:46.703Z,1.35
2022-10-06T06:26:18.474Z,1.17
2022-10-06T06:28:48.607Z,1.30
2022-10-06T06:31:20.335Z,1.35
2022-10-06T06:33:47.569Z,1.17
2022-10-06T06:36:14.821Z,1.30
2022-10-06T06:38:41.953Z,1.10
2022-10-06T06:41:30.852Z,1.00
2022-10-06T06:44:00.010Z,0.82
2022-10-06T06:46:28.386Z,1.30
2022-10-06T06:48:55.374Z,1.20
2022-10-06T06:51:23.935Z,1.48
2022-10-06T06:53:51.592Z,1.13
2022-10-06T06:56:18.438Z,1.15
2022-10-06T06:58:48.943Z,1.42
2022-10-06T07:01:18.114Z,0.95
2022-10-06T07:04:03.378Z,1.35
2022-10-06T07:06:30.449Z,1.67
2022-10-06T07:08:58.777Z,1.10
2022-10-06T07:11:33.849Z,1.50
2022-10-06T07:14:02.957Z,1.75
2022-10-06T07:16:49.117Z,1.50
2022-10-06T07:19:35.943Z,1.45
2022-10-06T07:22:26.889Z,1.75
2022-10-06T07:25:06.974Z,1.38
2022-10-06T07:27:44.438Z,1.75
2022-10-06T07:30:19.577Z,1.52
2022-10-06T07:32:50.522Z,1.38
2022-10-06T07:35:21.097Z,1.80
2022-10-06T07:37:48.237Z,1.75
2022-10-06T07:40:14.861Z,1.65
2022-10-06T07:42:53.454Z,1.80
2022-10-06T07:45:41.756Z,2.30
2022-10-06T07:48:14.309Z,1.75
2022-10-06T07:50:41.962Z,2.00
2022-10-06T07:53:10.909Z,1.85
2022-10-06T07:55:41.416Z,1.60
2022-10-06T07:58:12.740Z,1.65
2022-10-06T08:00:39.791Z,1.83
2022-10-06T08:03:06.184Z,1.65
2022-10-06T08:05:32.690Z,1.77
2022-10-06T08:07:59.173Z,2.42
2022-10-06T08:10:25.591Z,2.75
2022-10-06T08:12:51.957Z,1.90
2022-10-06T08:15:18.575Z,2.10
2022-10-06T08:17:44.903Z,2.28
2022-10-06T08:20:12.658Z,2.03
2022-10-06T08:22:39.939Z,2.10
2022-10-06T08:25:09.097Z,1.73
2022-10-06T08:27:36.902Z,2.10
2022-10-06T08:30:05.672Z,2.47
2022-10-06T08:32:32.964Z,2.00
2022-10-06T08:34:59.339Z,2.40
2022-10-06T08:37:27.167Z,2.50
2022-10-06T08:39:54.603Z,2.05
2022-10-06T08:42:26.819Z,1.98
2022-10-06T08:44:59.695Z,2.90
2022-10-06T08:47:29.302Z,1.85
2022-10-06T08:49:56.130Z,2.30
2022-10-06T08:52:51.343Z,1.85
2022-10-06T09:00:22.921Z,2.30
2022-10-06T09:02:49.870Z,1.98
2022-10-06T09:05:26.482Z,1.85
2022-10-06T09:08:17.951Z,2.10
2022-10-06T09:11:00.889Z,2.50
2022-10-06T09:13:30.649Z,2.33
2022-10-06T09:16:00.812Z,1.75
2022-10-06T09:19:03.534Z,2.38
2022-10-06T09:21:30.184Z,1.77
2022-10-06T09:26:31.375Z,2.03
2022-10-06T09:28:58.285Z,1.60
2022-10-06T09:31:29.866Z,1.77
2022-10-06T09:33:59.360Z,2.08
2022-10-06T09:36:25.983Z,1.63
2022-10-06T09:38:57.003Z,2.20
2022-10-06T09:41:44.540Z,1.52
2022-10-06T09:44:31.695Z,2.10
2022-10-06T09:46:58.416Z,1.50
2022-10-06T09:49:31.277Z,1.67
2022-10-06T09:52:15.166Z,1.95
2022-10-06T09:54:43.286Z,1.65
2022-10-06T09:57:14.954Z,1.70
2022-10-06T09:59:43.346Z,1.63
2022-10-06T10:02:37.088Z,2.47
2022-10-06T10:05:20.840Z,2.10
2022-10-06T10:08:01.170Z,2.28
2022-10-06T10:10:27.507Z,1.98
2022-10-06T10:12:58.726Z,1.35
2022-10-06T10:15:30.483Z,1.90
2022-10-06T10:18:05.584Z,2.28
2022-10-06T10:20:35.483Z,1.80
2022-10-06T10:23:17.422Z,2.47
2022-10-06T10:25:53.337Z,1.80
2022-10-06T10:28:36.565Z,1.80
2022-10-06T10:31:31.469Z,1.83
2022-10-06T10:36:52.422Z,2.13
2022-10-06T10:39:46.269Z,2.00
2022-10-06T10:42:22.693Z,2.60
2022-10-06T10:44:55.161Z,1.98
2022-10-06T10:47:29.560Z,1.65
2022-10-06T10:52:28.930Z,1.52
2022-10-06T10:55:06.750Z,1.63
2022-10-06T10:57:37.897Z,2.10
2022-10-06T11:00:12.310Z,2.03
2022-10-06T11:02:40.139Z,2.08
2022-10-06T11:05:17.367Z,2.20
2022-10-06T11:07:59.818Z,1.70
2022-10-06T11:10:30.182Z,1.90
2022-10-06T11:13:15.273Z,2.17
2022-10-06T11:15:57.540Z,1.67
2022-10-06T11:19:14.630Z,1.50
2022-10-06T11:21:50.581Z,2.05
2022-10-06T11:24:31.686Z,2.42
2022-10-06T11:27:22.846Z,2.05
2022-10-06T11:30:07.600Z,1.58
2022-10-06T11:32:42.765Z,2.40
2022-10-06T11:35:21.526Z,1.60
2022-10-06T11:38:00.769Z,2.10
2022-10-06T11:40:41.993Z,2.22
2022-10-06T11:43:29.876Z,1.88
2022-10-06T11:46:20.283Z,1.95
2022-10-06T11:48:47.958Z,1.85
2022-10-06T11:51:21.407Z,1.75
2022-10-06T11:53:47.815Z,2.53
2022-10-06T11:56:17.138Z,1.92
2022-10-06T11:58:52.485Z,1.98
2022-10-06T12:01:43.683Z,1.90
2022-10-06T12:04:10.196Z,1.80
2022-10-06T12:06:48.495Z,2.47
2022-10-06T12:09:23.675Z,2.20
2022-10-06T12:12:00.489Z,2.20
2022-10-06T12:17:37.895Z,1.73
2022-10-06T12:20:44.937Z,1.75
2022-10-06T12:23:18.698Z,1.92
2022-10-06T12:25:57.201Z,1.90
2022-10-06T12:28:36.725Z,1.95
2022-10-06T12:31:19.163Z,1.95
2022-10-06T12:33:45.832Z,1.98
2022-10-06T12:36:31.267Z,1.95
2022-10-06T12:39:04.853Z,2.03
2022-10-06T12:42:03.336Z,2.58
2022-10-06T12:44:51.464Z,2.05
2022-10-06T12:47:23.099Z,2.35
2022-10-06T12:49:54.453Z,1.80
2022-10-06T12:52:31.309Z,2.40
2022-10-06T12:55:35.232Z,1.38
2022-10-06T12:58:01.613Z,2.10
2022-10-06T13:00:39.467Z,1.52
2022-10-06T13:03:08.871Z,2.38
2022-10-06T13:05:36.206Z,2.10
2022-10-06T13:08:18.148Z,2.17
2022-10-06T13:13:24.089Z,2.45
2022-10-06T13:16:00.726Z,1.85
2022-10-06T13:18:27.604Z,2.53
2022-10-06T13:20:57.976Z,1.85
2022-10-06T13:23:26.738Z,2.17
2022-10-06T13:25:55.988Z,2.00
2022-10-06T13:28:43.897Z,2.00
2022-10-06T13:31:34.538Z,1.88
2022-10-06T13:34:05.533Z,1.95
2022-10-06T13:36:37.144Z,2.15
2022-10-06T13:39:05.022Z,2.63
2022-10-06T13:41:42.986Z,1.80
2022-10-06T13:44:11.935Z,2.17
2022-10-06T13:46:40.488Z,1.52
2022-10-06T13:49:17.108Z,1.77
2022-10-06T13:51:53.434Z,1.63
2022-10-06T13:54:26.137Z,2.00
2022-10-06T13:56:53.098Z,2.00
2022-10-06T13:59:38.309Z,2.08
2022-10-06T14:02:16.524Z,1.73
2022-10-06T14:04:42.946Z,1.70
2022-10-06T14:07:12.847Z,1.85
2022-10-06T14:09:40.465Z,2.30
2022-10-06T14:12:12.794Z,1.65
2022-10-06T14:14:39.798Z,2.03
2022-10-06T14:17:06.783Z,1.88
2022-10-06T14:19:38.859Z,1.50
2022-10-06T14:22:06.388Z,1.70
2022-10-06T14:24:37.159Z,1.55
2022-10-06T14:27:05.807Z,1.75
2022-10-06T14:29:33.964Z,2.05
2022-10-06T14:32:13.045Z,1.73
2022-10-06T14:34:40.849Z,1.70
2022-10-06T14:37:12.005Z,1.92
2022-10-06T14:39:38.534Z,2.08
2022-10-06T14:42:05.003Z,1.60
2022-10-06T14:44:31.328Z,1.73
2022-10-06T14:46:57.778Z,1.75
2022-10-06T14:49:25.459Z,1.70
2022-10-06T14:51:53.749Z,1.50
2022-10-06T14:54:20.457Z,1.98
2022-10-06T14:56:46.785Z,1.67
2022-10-06T14:59:16.816Z,1.60
2022-10-06T15:01:43.183Z,1.58
2022-10-06T15:04:20.532Z,1.95
2022-10-06T15:07:05.732Z,1.73
2022-10-06T15:09:32.494Z,1.80
2022-10-06T15:11:59.722Z,1.63
2022-10-06T15:14:28.205Z,1.90
2022-10-06T15:16:55.783Z,1.50
2022-10-06T15:19:22.087Z,1.85
2022-10-06T15:21:48.411Z,1.58
2022-10-06T15:24:16.360Z,1.52
2022-10-06T15:27:02.119Z,1.70
2022-10-06T15:29:28.842Z,1.70
2022-10-06T15:31:56.777Z,1.98
2022-10-06T15:34:34.042Z,1.65
2022-10-06T15:37:01.151Z,1.80
2022-10-06T15:39:29.963Z,1.40
2022-10-06T15:41:56.983Z,1.95
2022-10-06T15:44:23.304Z,1.58
2022-10-06T15:46:54.732Z,1.77
2022-10-06T15:49:23.424Z,1.58
2022-10-06T15:51:50.569Z,1.75
2022-10-06T15:54:19.350Z,1.45
2022-10-06T15:56:50.401Z,1.70
2022-10-06T15:59:17.427Z,1.92
2022-10-06T16:01:46.803Z,1.52
2022-10-06T16:04:46.938Z,1.30
2022-10-06T16:07:18.927Z,1.88
2022-10-06T16:09:50.121Z,1.67
2022-10-06T16:12:19.397Z,1.33
2022-10-06T16:14:46.042Z,2.10
2022-10-06T16:17:12.978Z,1.40
2022-10-06T16:19:42.570Z,1.83
2022-10-06T16:22:14.346Z,1.40
2022-10-06T16:24:40.721Z,1.70
2022-10-06T16:27:11.056Z,1.63
2022-10-06T16:29:37.380Z,1.60
2022-10-06T16:32:03.728Z,1.48
2022-10-06T16:34:31.281Z,1.30
2022-10-06T16:36:57.960Z,1.73
2022-10-06T16:39:24.397Z,1.65
2022-10-06T16:41:51.040Z,1.65
2022-10-06T16:44:17.689Z,1.70
2022-10-06T16:46:44.138Z,1.63
2022-10-06T16:49:10.869Z,1.80
2022-10-06T16:51:39.513Z,1.13
2022-10-06T16:54:07.618Z,1.50
2022-10-06T16:56:36.426Z,1.95
2022-10-06T16:59:06.512Z,1.60
2022-10-06T17:01:35.008Z,1.80
2022-10-06T17:04:07.142Z,2.33
2022-10-06T17:06:39.178Z,2.28
2022-10-06T17:09:08.122Z,3.03
2022-10-06T17:11:35.731Z,2.63
2022-10-06T17:14:02.854Z,4.30
2022-10-06T17:16:31.541Z,2.35
2022-10-06T17:18:58.118Z,1.90
2022-10-06T17:21:45.036Z,2.28
2022-10-06T17:24:10.938Z,2.28
2022-10-06T17:26:42.137Z,1.77
2022-10-06T17:29:12.734Z,1.75
2022-10-06T17:31:40.930Z,1.77
2022-10-06T17:34:11.816Z,1.48
2022-10-06T17:36:48.945Z,2.00
2022-10-06T17:39:18.004Z,2.10
2022-10-06T17:41:45.423Z,2.58
2022-10-06T17:44:15.140Z,3.20
2022-10-06T17:46:42.667Z,2.60
2022-10-06T17:49:11.153Z,3.20
2022-10-06T17:51:40.638Z,2.70
2022-10-06T17:54:11.909Z,2.50
2022-10-06T17:56:39.147Z,2.88
2022-10-06T17:59:07.479Z,2.20
2022-10-06T18:01:35.541Z,1.95
2022-10-06T18:04:04.458Z,2.00
2022-10-06T18:06:32.561Z,1.95
2022-10-06T18:09:01.044Z,1.98
2022-10-06T18:11:38.861Z,2.10
2022-10-06T18:14:07.482Z,1.48
2022-10-06T18:16:36.834Z,2.28
2022-10-06T18:19:12.299Z,2.00
2022-10-06T18:21:39.770Z,2.08
2022-10-06T18:24:17.751Z,2.13
2022-10-06T18:26:48.450Z,1.70
2022-10-06T18:29:20.797Z,2.15
2022-10-06T18:31:51.918Z,2.22
2022-10-06T18:36:09.541Z,1.85
2022-10-06T18:37:04.921Z,1.95
2022-10-06T18:39:31.962Z,2.20
2022-10-06T18:42:02.262Z,2.00
2022-10-06T18:44:47.068Z,2.03
2022-10-06T18:47:31.922Z,2.28
2022-10-06T18:49:58.247Z,2.13
2022-10-06T18:52:27.422Z,2.30
2022-10-06T18:54:53.733Z,2.28
2022-10-06T18:57:23.840Z,2.25
2022-10-06T18:59:56.039Z,2.47
2022-10-06T19:02:22.490Z,2.33
2022-10-06T19:04:48.915Z,1.90
2022-10-06T19:07:16.882Z,1.90
2022-10-06T19:09:46.570Z,1.90
2022-10-06T19:12:13.712Z,1.75
2022-10-06T19:14:50.031Z,1.83
2022-10-06T19:17:16.554Z,2.42
2022-10-06T19:19:52.328Z,3.28
2022-10-06T19:22:21.462Z,3.17
2022-10-06T19:24:48.516Z,3.22
2022-10-06T19:27:20.364Z,2.70
2022-10-06T19:29:54.617Z,2.97
2022-10-06T19:32:24.882Z,2.45
2022-10-06T19:34:52.098Z,2.90
2022-10-06T19:37:18.440Z,2.85
2022-10-06T19:39:49.118Z,2.20
2022-10-06T19:42:36.085Z,2.33
2022-10-06T19:45:03.743Z,2.00
2022-10-06T19:47:30.116Z,2.03
2022-10-06T19:50:00.803Z,1.63
2022-10-06T19:52:31.082Z,1.75
2022-10-06T19:54:57.394Z,2.00
2022-10-06T19:57:23.716Z,1.98
2022-10-06T19:59:50.676Z,2.15
2022-10-06T20:02:17.076Z,2.13
2022-10-06T20:04:45.428Z,1.88
2022-10-06T20:07:11.828Z,1.95
2022-10-06T20:09:38.176Z,2.05
2022-10-06T20:12:05.731Z,1.92
2022-10-06T20:14:32.108Z,2.10
2022-10-06T20:16:58.781Z,2.03
2022-10-06T20:19:25.302Z,1.92
2022-10-06T20:21:52.221Z,1.80
2022-10-06T20:24:26.756Z,2.17
2022-10-06T20:26:53.502Z,1.55
2022-10-06T20:29:25.675Z,1.73
2022-10-06T20:31:54.095Z,2.00
2022-10-06T20:34:23.673Z,2.00
2022-10-06T20:36:55.578Z,2.45
2022-10-06T20:39:41.433Z,1.85
2022-10-06T20:42:12.201Z,1.70
2022-10-06T20:44:41.171Z,1.93
2022-10-06T20:47:08.736Z,2.28
2022-10-06T20:49:35.072Z,1.90
2022-10-06T20:52:02.624Z,2.13
2022-10-06T20:54:34.707Z,2.40
2022-10-06T20:57:02.976Z,1.92
2022-10-06T20:59:29.915Z,2.88
2022-10-06T21:01:57.961Z,2.05
2022-10-06T21:04:24.311Z,2.08
2022-10-06T21:06:50.969Z,1.92
2022-10-06T21:09:19.681Z,1.50
2022-10-06T21:11:47.355Z,2.00
2022-10-06T21:14:13.948Z,1.55
2022-10-06T21:16:43.137Z,2.40
2022-10-06T21:19:14.615Z,2.38
2022-10-06T21:21:53.709Z,2.10
2022-10-06T21:24:20.984Z,3.10
2022-10-06T21:26:47.490Z,2.47
2022-10-06T21:29:16.256Z,2.17
2022-10-06T21:31:43.902Z,2.42
2022-10-06T21:34:10.371Z,1.73
2022-10-06T21:36:36.729Z,1.90
2022-10-06T21:39:06.125Z,2.35
2022-10-06T21:41:38.815Z,2.25
2022-10-06T21:44:13.118Z,2.75
2022-10-06T21:46:43.793Z,2.08
2022-10-06T21:49:11.861Z,2.28
2022-10-06T21:51:39.019Z,1.77
2022-10-06T21:54:05.689Z,1.50
2022-10-06T21:56:33.395Z,1.90
2022-10-06T21:58:59.893Z,1.90
2022-10-06T22:01:31.364Z,2.08
2022-10-06T22:04:00.070Z,1.55
2022-10-06T22:06:27.460Z,1.60
2022-10-06T22:08:54.660Z,2.45
2022-10-06T22:11:26.859Z,2.10
2022-10-06T22:13:54.803Z,1.52
2022-10-06T22:16:24.477Z,1.60
2022-10-06T22:18:51.068Z,1.70
2022-10-06T22:21:19.060Z,1.73
2022-10-06T22:23:47.301Z,2.03
2022-10-06T22:26:16.914Z,1.50
2022-10-06T22:28:47.382Z,1.40
2022-10-06T22:31:14.877Z,1.92
2022-10-06T22:33:42.392Z,1.98
2022-10-06T22:36:10.753Z,1.60
2022-10-06T22:38:37.190Z,2.33
2022-10-06T22:41:06.022Z,1.60
2022-10-06T22:43:33.636Z,1.25
2022-10-06T22:46:00.121Z,1.77
2022-10-06T22:48:26.797Z,1.58
2022-10-06T22:50:53.264Z,1.77
2022-10-06T22:53:21.949Z,1.40
2022-10-06T22:55:48.452Z,1.70
2022-10-06T22:58:15.912Z,2.20
2022-10-06T23:00:42.750Z,2.20
2022-10-06T23:03:09.561Z,2.00
2022-10-06T23:05:36.025Z,1.60
2022-10-06T23:08:03.094Z,1.48
2022-10-06T23:10:30.533Z,2.03
2022-10-06T23:12:58.331Z,1.60
2022-10-06T23:15:25.776Z,1.73
2022-10-06T23:17:52.681Z,1.60
2022-10-06T23:20:19.760Z,1.40
2022-10-06T23:22:46.487Z,1.67
2022-10-06T23:25:12.860Z,1.75
2022-10-06T23:27:39.209Z,1.50
2022-10-06T23:30:06.952Z,1.77
2022-10-06T23:32:33.443Z,1.63
2022-10-06T23:34:59.736Z,1.80
2022-10-06T23:37:26.040Z,1.67
2022-10-06T23:39:52.412Z,1.67
2022-10-06T23:42:18.724Z,1.98
2022-10-06T23:44:45.041Z,1.83
2022-10-06T23:47:11.348Z,1.80
2022-10-06T23:49:37.693Z,1.50
2022-10-06T23:52:04.143Z,1.98
2022-10-06T23:54:30.484Z,1.58
2022-10-06T23:56:56.817Z,1.30
2022-10-06T23:59:23.480Z,1.55
